createdAt,value
2022-12-22T00:02:10.676Z,8.76
2022-12-22T00:05:16.780Z,8.58
2022-12-22T00:08:23.486Z,8.51
2022-12-22T00:11:30.230Z,8.81
2022-12-22T00:14:36.459Z,8.79
2022-12-22T00:17:46.088Z,8.77
2022-12-22T00:20:52.276Z,8.84
2022-12-22T00:23:58.515Z,9.07
2022-12-22T00:27:05.193Z,9.35
2022-12-22T00:30:11.051Z,9.64
2022-12-22T00:33:18.456Z,10.02
2022-12-22T00:36:29.382Z,10.16
2022-12-22T00:39:35.208Z,10.34
2022-12-22T00:42:41.273Z,10.40
2022-12-22T00:45:47.404Z,10.29
2022-12-22T00:48:55.365Z,10.35
2022-12-22T00:52:01.661Z,10.39
2022-12-22T00:55:11.202Z,10.37
2022-12-22T00:58:17.361Z,10.36
2022-12-22T01:01:23.509Z,10.26
2022-12-22T01:04:31.163Z,10.32
2022-12-22T01:07:37.696Z,10.31
2022-12-22T01:10:45.130Z,10.28
2022-12-22T01:13:51.339Z,10.26
2022-12-22T01:16:57.474Z,10.28
2022-12-22T01:20:05.010Z,10.24
2022-12-22T01:23:10.892Z,10.19
2022-12-22T01:26:17.169Z,10.28
2022-12-22T01:29:23.354Z,10.22
2022-12-22T01:32:30.534Z,10.30
2022-12-22T01:35:39.893Z,10.22
2022-12-22T01:38:46.093Z,10.44
2022-12-22T01:41:52.291Z,10.36
2022-12-22T01:44:58.403Z,10.64
2022-12-22T01:48:04.401Z,10.75
2022-12-22T01:51:11.716Z,10.88
2022-12-22T01:54:18.332Z,10.92
2022-12-22T01:57:24.445Z,10.79
2022-12-22T02:00:31.211Z,10.72
2022-12-22T02:03:39.229Z,10.72
2022-12-22T02:06:56.248Z,10.95
2022-12-22T02:10:10.419Z,11.13
2022-12-22T02:13:25.558Z,11.33
2022-12-22T02:16:37.337Z,11.38
2022-12-22T02:19:59.023Z,11.46
2022-12-22T02:23:11.571Z,11.42
2022-12-22T02:26:22.716Z,11.20
2022-12-22T02:29:30.953Z,11.33
2022-12-22T02:32:37.852Z,11.42
2022-12-22T02:35:43.668Z,11.45
2022-12-22T02:38:59.059Z,11.39
2022-12-22T02:42:10.130Z,11.32
2022-12-22T02:45:25.560Z,11.44
2022-12-22T02:48:34.929Z,11.42
2022-12-22T02:51:43.831Z,11.44
2022-12-22T02:54:51.017Z,11.36
2022-12-22T02:57:57.243Z,11.52
2022-12-22T03:01:04.627Z,11.29
2022-12-22T03:04:10.605Z,11.66
2022-12-22T03:07:16.790Z,11.57
2022-12-22T03:10:23.498Z,11.54
2022-12-22T03:13:29.652Z,11.49
2022-12-22T03:16:37.246Z,11.48
2022-12-22T03:19:43.164Z,11.49
2022-12-22T03:22:49.244Z,11.45
2022-12-22T03:25:55.858Z,11.43
2022-12-22T03:28:44.354Z,11.47
2022-12-22T03:31:34.231Z,11.47
2022-12-22T03:34:22.879Z,11.57
2022-12-22T03:37:11.331Z,11.54
2022-12-22T03:39:59.758Z,11.52
2022-12-22T03:43:05.670Z,11.68
2022-12-22T03:46:18.522Z,11.67
2022-12-22T03:49:11.240Z,11.75
2022-12-22T03:51:59.721Z,11.67
2022-12-22T03:54:48.247Z,11.85
2022-12-22T03:57:36.713Z,11.78
2022-12-22T04:00:25.261Z,11.72
2022-12-22T04:03:14.296Z,11.76
2022-12-22T04:06:04.192Z,11.64
2022-12-22T04:08:52.723Z,11.53
2022-12-22T04:11:58.615Z,11.59
2022-12-22T04:14:47.074Z,11.69
2022-12-22T04:17:35.647Z,11.60
2022-12-22T04:20:26.718Z,11.47
2022-12-22T04:23:16.552Z,11.45
2022-12-22T04:26:05.136Z,11.16
2022-12-22T04:28:54.484Z,11.37
2022-12-22T04:31:43.060Z,11.37
2022-12-22T04:34:31.558Z,11.32
2022-12-22T04:37:20.591Z,11.31
2022-12-22T04:40:11.058Z,11.29
2022-12-22T04:42:59.562Z,11.36
2022-12-22T04:45:48.064Z,11.40
2022-12-22T04:48:36.574Z,11.44
2022-12-22T04:51:25.004Z,11.50
2022-12-22T04:54:13.474Z,11.42
2022-12-22T04:57:03.349Z,11.37
2022-12-22T04:59:51.797Z,11.40
2022-12-22T05:02:40.407Z,11.62
2022-12-22T05:05:28.972Z,11.63
2022-12-22T05:08:17.535Z,11.71
2022-12-22T05:11:06.508Z,11.73
2022-12-22T05:13:57.822Z,11.88
2022-12-22T05:16:49.373Z,11.71
2022-12-22T05:19:37.942Z,11.73
2022-12-22T05:22:26.417Z,11.81
2022-12-22T05:25:17.587Z,11.79
2022-12-22T05:28:06.249Z,11.73
2022-12-22T05:30:56.247Z,11.76
2022-12-22T05:33:44.757Z,11.81
2022-12-22T05:36:33.250Z,11.85
2022-12-22T05:39:21.641Z,11.94
2022-12-22T05:42:10.159Z,12.03
2022-12-22T05:44:58.608Z,12.08
2022-12-22T05:47:50.159Z,12.07
2022-12-22T05:50:38.758Z,12.00
2022-12-22T05:53:27.217Z,12.04
2022-12-22T05:56:15.685Z,12.21
2022-12-22T05:59:04.308Z,12.15
2022-12-22T06:01:52.834Z,12.14
2022-12-22T06:04:42.611Z,12.09
2022-12-22T06:07:31.092Z,12.04
2022-12-22T06:10:19.601Z,11.93
2022-12-22T06:13:08.025Z,12.13
2022-12-22T06:15:56.531Z,12.06
2022-12-22T06:18:45.037Z,12.13
2022-12-22T06:21:34.900Z,12.06
2022-12-22T06:24:23.440Z,12.06
2022-12-22T06:27:12.755Z,12.02
2022-12-22T06:30:01.249Z,12.03
2022-12-22T06:32:49.734Z,12.19
2022-12-22T06:35:38.211Z,12.20
2022-12-22T06:38:28.452Z,12.08
2022-12-22T06:41:37.691Z,12.35
2022-12-22T06:44:25.241Z,12.23
2022-12-22T06:47:13.936Z,12.47
2022-12-22T06:50:02.514Z,12.54
2022-12-22T06:52:50.958Z,12.50
2022-12-22T06:55:41.062Z,12.44
2022-12-22T06:58:29.535Z,12.36
2022-12-22T07:01:18.064Z,12.42
2022-12-22T07:04:06.654Z,12.35
2022-12-22T07:06:55.145Z,12.37
2022-12-22T07:09:43.658Z,12.34
2022-12-22T07:12:33.498Z,12.32
2022-12-22T07:15:21.963Z,12.16
2022-12-22T07:18:10.396Z,12.31
2022-12-22T07:20:59.010Z,12.20
2022-12-22T07:23:47.499Z,12.15
2022-12-22T07:26:35.992Z,12.15
2022-12-22T07:29:26.000Z,12.20
2022-12-22T07:32:14.478Z,12.19
2022-12-22T07:35:05.624Z,12.20
2022-12-22T07:37:54.627Z,12.41
2022-12-22T07:40:44.992Z,12.42
2022-12-22T07:43:34.323Z,12.35
2022-12-22T07:46:24.803Z,12.32
2022-12-22T07:49:31.064Z,12.21
2022-12-22T07:52:19.563Z,12.29
2022-12-22T07:55:09.748Z,12.15
2022-12-22T07:57:58.879Z,12.20
2022-12-22T08:00:47.643Z,12.25
2022-12-22T08:03:37.540Z,12.42
2022-12-22T08:06:26.622Z,12.45
2022-12-22T08:09:16.719Z,12.36
2022-12-22T08:12:05.718Z,12.50
2022-12-22T08:14:54.199Z,12.51
2022-12-22T08:17:42.740Z,12.53
2022-12-22T08:20:33.098Z,12.51
2022-12-22T08:23:21.551Z,12.60
2022-12-22T08:26:13.213Z,12.44
2022-12-22T08:29:05.184Z,12.64
2022-12-22T08:31:53.744Z,12.41
2022-12-22T08:34:42.449Z,12.64
2022-12-22T08:37:34.594Z,12.79
2022-12-22T08:40:26.100Z,12.79
2022-12-22T08:43:14.821Z,12.70
2022-12-22T08:46:03.355Z,12.67
2022-12-22T08:48:51.897Z,12.63
2022-12-22T08:51:40.375Z,12.64
2022-12-22T08:54:30.330Z,12.34
2022-12-22T08:57:18.929Z,12.23
2022-12-22T09:00:09.512Z,12.03
2022-12-22T09:02:58.219Z,11.94
2022-12-22T09:05:46.780Z,11.84
2022-12-22T09:08:35.225Z,11.83
2022-12-22T09:11:25.355Z,11.87
2022-12-22T09:14:14.375Z,11.76
2022-12-22T09:17:02.868Z,11.71
2022-12-22T09:19:51.541Z,11.67
2022-12-22T09:22:40.121Z,11.66
2022-12-22T09:25:28.608Z,11.60
2022-12-22T09:28:18.525Z,11.48
2022-12-22T09:31:07.314Z,11.43
2022-12-22T09:33:55.732Z,11.21
2022-12-22T09:36:44.408Z,11.23
2022-12-22T09:39:33.091Z,11.14
2022-12-22T09:42:23.885Z,11.06
2022-12-22T09:45:19.933Z,11.08
2022-12-22T09:48:10.788Z,10.99
2022-12-22T09:51:00.181Z,10.95
2022-12-22T09:53:54.652Z,10.89
2022-12-22T09:56:44.173Z,10.84
2022-12-22T09:59:32.678Z,10.82
2022-12-22T10:02:28.209Z,10.90
2022-12-22T10:05:28.100Z,10.90
2022-12-22T10:08:19.931Z,10.82
2022-12-22T10:11:09.133Z,10.90
2022-12-22T10:13:57.646Z,11.05
2022-12-22T10:16:46.371Z,10.98
2022-12-22T10:19:36.304Z,11.10
2022-12-22T10:22:30.776Z,11.14
2022-12-22T10:25:39.779Z,11.02
2022-12-22T10:28:40.499Z,11.15
2022-12-22T10:31:32.997Z,11.19
2022-12-22T10:34:21.816Z,11.23
2022-12-22T10:37:11.686Z,11.18
2022-12-22T10:40:00.263Z,11.21
2022-12-22T10:42:51.207Z,11.19
2022-12-22T10:45:39.800Z,11.18
2022-12-22T10:48:34.575Z,11.12
2022-12-22T10:51:26.122Z,11.15
2022-12-22T10:54:33.073Z,11.01
2022-12-22T10:57:30.824Z,10.97
2022-12-22T11:00:25.613Z,10.99
2022-12-22T11:03:19.107Z,10.75
2022-12-22T11:06:13.348Z,10.95
2022-12-22T11:09:31.304Z,10.94
2022-12-22T11:12:19.237Z,10.87
2022-12-22T11:15:21.931Z,10.91
2022-12-22T11:18:24.801Z,10.95
2022-12-22T11:21:23.816Z,10.98
2022-12-22T11:24:24.274Z,10.96
2022-12-22T11:27:25.700Z,11.09
2022-12-22T11:30:32.529Z,11.03
2022-12-22T11:33:30.807Z,10.81
2022-12-22T11:36:27.032Z,10.94
2022-12-22T11:39:17.229Z,10.93
2022-12-22T11:42:20.856Z,10.86
2022-12-22T11:45:20.997Z,10.76
2022-12-22T11:48:24.541Z,10.75
2022-12-22T11:51:27.006Z,10.77
2022-12-22T11:54:42.363Z,10.79
2022-12-22T11:57:37.297Z,10.61
2022-12-22T12:00:55.787Z,10.78
2022-12-22T12:04:02.390Z,10.79
2022-12-22T12:07:05.174Z,10.70
2022-12-22T12:10:02.407Z,10.77
2022-12-22T12:12:55.396Z,10.63
2022-12-22T12:15:48.242Z,10.72
2022-12-22T12:18:53.162Z,10.68
2022-12-22T12:21:46.955Z,10.65
2022-12-22T12:24:49.185Z,10.66
2022-12-22T12:27:55.238Z,10.57
2022-12-22T12:30:48.517Z,10.70
2022-12-22T12:33:39.830Z,10.72
2022-12-22T12:36:31.131Z,10.66
2022-12-22T12:39:24.860Z,10.64
2022-12-22T12:42:22.949Z,10.60
2022-12-22T12:45:37.291Z,10.60
2022-12-22T12:48:40.322Z,10.57
2022-12-22T12:51:49.418Z,10.56
2022-12-22T12:54:40.088Z,10.57
2022-12-22T12:57:30.317Z,10.56
2022-12-22T13:00:50.950Z,10.67
2022-12-22T13:06:54.342Z,10.70
2022-12-22T13:10:18.442Z,10.70
2022-12-22T13:13:09.352Z,10.74
2022-12-22T13:16:23.687Z,10.72
2022-12-22T13:19:19.785Z,10.70
2022-12-22T13:22:09.015Z,10.72
2022-12-22T13:24:57.927Z,10.60
2022-12-22T13:27:47.339Z,10.74
2022-12-22T13:30:35.934Z,10.64
2022-12-22T13:33:28.449Z,10.66
2022-12-22T13:36:19.658Z,10.73
2022-12-22T13:39:14.209Z,10.74
2022-12-22T13:42:02.780Z,10.67
2022-12-22T13:44:51.311Z,10.77
2022-12-22T13:47:41.827Z,10.50
2022-12-22T13:50:34.792Z,10.75
2022-12-22T13:56:39.958Z,10.70
2022-12-22T13:59:30.066Z,10.69
2022-12-22T14:02:20.605Z,10.71
2022-12-22T14:05:10.990Z,10.53
2022-12-22T14:08:02.889Z,10.44
2022-12-22T14:10:51.937Z,10.65
2022-12-22T14:13:40.526Z,10.78
2022-12-22T14:16:29.069Z,10.77
2022-12-22T14:19:19.056Z,9.81
2022-12-22T14:22:11.084Z,10.44
2022-12-22T14:25:02.841Z,10.73
2022-12-22T14:27:54.478Z,10.69
2022-12-22T14:30:46.383Z,10.74
2022-12-22T14:33:36.087Z,10.80
2022-12-22T14:36:26.239Z,10.83
2022-12-22T14:39:23.453Z,10.89
2022-12-22T14:42:14.886Z,10.93
2022-12-22T14:45:03.343Z,10.93
2022-12-22T14:47:52.107Z,10.87
2022-12-22T14:50:48.963Z,10.87
2022-12-22T14:53:43.935Z,10.88
2022-12-22T14:56:32.475Z,10.91
2022-12-22T14:59:27.580Z,10.88
2022-12-22T15:02:36.649Z,10.90
2022-12-22T15:05:28.956Z,10.84
2022-12-22T15:08:38.999Z,10.87
2022-12-22T15:11:27.588Z,10.74
2022-12-22T15:14:17.943Z,10.66
2022-12-22T15:17:16.645Z,10.65
2022-12-22T15:20:06.905Z,10.69
2022-12-22T15:22:56.024Z,10.73
2022-12-22T15:25:44.493Z,10.66
2022-12-22T15:28:33.039Z,10.66
2022-12-22T15:31:21.631Z,10.65
2022-12-22T15:34:15.868Z,10.64
2022-12-22T15:37:04.361Z,10.58
2022-12-22T15:39:52.814Z,10.70
2022-12-22T15:42:41.306Z,10.65
2022-12-22T15:45:30.417Z,10.65
2022-12-22T15:48:23.732Z,10.71
2022-12-22T15:51:18.577Z,10.74
2022-12-22T15:54:08.691Z,10.56
2022-12-22T15:56:57.300Z,10.68
2022-12-22T15:59:45.793Z,10.64
2022-12-22T16:02:34.352Z,10.82
2022-12-22T16:05:22.968Z,10.81
2022-12-22T16:08:18.181Z,10.75
2022-12-22T16:11:08.105Z,10.75
2022-12-22T16:13:56.656Z,10.69
2022-12-22T16:16:47.113Z,10.65
2022-12-22T16:19:35.642Z,10.61
2022-12-22T16:22:30.746Z,10.76
2022-12-22T16:25:23.998Z,10.77
2022-12-22T16:28:16.991Z,10.72
2022-12-22T16:31:05.733Z,10.79
2022-12-22T16:33:54.263Z,10.70
2022-12-22T16:36:42.774Z,10.62
2022-12-22T16:39:31.233Z,10.54
2022-12-22T16:45:28.804Z,10.40
2022-12-22T16:48:20.108Z,10.61
2022-12-22T16:51:08.678Z,10.71
2022-12-22T16:53:57.211Z,10.82
2022-12-22T16:56:46.985Z,10.84
2022-12-22T16:59:36.884Z,10.97
2022-12-22T17:02:28.588Z,11.01
2022-12-22T17:05:25.370Z,10.94
2022-12-22T17:08:21.160Z,10.92
2022-12-22T17:11:11.492Z,10.91
2022-12-22T17:14:05.341Z,10.95
2022-12-22T17:16:55.322Z,10.86
2022-12-22T17:19:43.897Z,10.90
2022-12-22T17:22:33.592Z,10.87
2022-12-22T17:25:24.923Z,10.85
2022-12-22T17:28:14.501Z,10.75
2022-12-22T17:31:03.254Z,10.77
2022-12-22T17:33:53.270Z,10.74
2022-12-22T17:36:41.885Z,10.74
2022-12-22T17:39:32.240Z,10.81
2022-12-22T17:42:22.421Z,10.79
2022-12-22T17:45:14.762Z,10.96
2022-12-22T17:48:03.397Z,10.93
2022-12-22T17:50:53.396Z,10.87
2022-12-22T17:53:41.901Z,10.87
2022-12-22T17:56:30.639Z,10.65
2022-12-22T17:59:19.190Z,10.89
2022-12-22T18:02:07.705Z,10.75
2022-12-22T18:04:56.367Z,10.89
2022-12-22T18:07:46.647Z,11.00
2022-12-22T18:10:39.592Z,10.93
2022-12-22T18:13:28.124Z,11.00
2022-12-22T18:16:18.741Z,11.12
2022-12-22T18:19:07.255Z,11.19
2022-12-22T18:21:55.829Z,11.20
2022-12-22T18:24:45.677Z,11.28
2022-12-22T18:27:34.330Z,11.29
2022-12-22T18:30:24.965Z,11.38
2022-12-22T18:33:14.449Z,11.48
2022-12-22T18:36:03.179Z,11.71
2022-12-22T18:38:51.776Z,11.63
2022-12-22T18:41:41.687Z,11.60
2022-12-22T18:44:30.221Z,11.60
2022-12-22T18:47:19.165Z,11.61
2022-12-22T18:50:09.875Z,11.69
2022-12-22T18:53:01.183Z,11.65
2022-12-22T18:55:49.724Z,11.56
2022-12-22T18:58:39.603Z,11.50
2022-12-22T19:01:28.352Z,11.47
2022-12-22T19:04:17.287Z,11.53
2022-12-22T19:07:05.911Z,11.55
2022-12-22T19:09:54.471Z,11.45
2022-12-22T19:12:43.533Z,11.38
2022-12-22T19:15:35.963Z,11.40
2022-12-22T19:18:27.286Z,11.34
2022-12-22T19:21:17.140Z,11.34
2022-12-22T19:24:06.478Z,11.26
2022-12-22T19:26:55.026Z,11.19
2022-12-22T19:29:43.592Z,11.22
2022-12-22T19:32:41.763Z,11.23
2022-12-22T19:35:31.985Z,11.17
2022-12-22T19:38:22.165Z,11.14
2022-12-22T19:41:27.439Z,11.08
2022-12-22T19:44:22.261Z,11.00
2022-12-22T19:47:17.321Z,11.08
2022-12-22T19:50:10.888Z,11.11
2022-12-22T19:52:59.967Z,11.04
2022-12-22T19:55:52.284Z,11.18
2022-12-22T19:58:41.273Z,11.02
2022-12-22T20:01:29.814Z,10.97
2022-12-22T20:04:18.461Z,11.05
2022-12-22T20:07:10.822Z,11.09
2022-12-22T20:09:59.348Z,11.12
2022-12-22T20:12:49.238Z,11.12
2022-12-22T20:15:39.619Z,11.20
2022-12-22T20:18:30.346Z,11.18
2022-12-22T20:21:23.903Z,11.21
2022-12-22T20:24:15.575Z,11.30
2022-12-22T20:27:04.091Z,11.16
2022-12-22T20:29:52.599Z,11.17
2022-12-22T20:32:41.130Z,11.23
2022-12-22T20:35:29.589Z,11.12
2022-12-22T20:38:20.588Z,11.14
2022-12-22T20:41:10.792Z,11.19
2022-12-22T20:43:59.580Z,11.19
2022-12-22T20:46:48.037Z,10.94
2022-12-22T20:49:36.597Z,11.14
2022-12-22T20:52:25.050Z,11.04
2022-12-22T20:55:15.548Z,11.16
2022-12-22T20:58:07.539Z,10.95
2022-12-22T21:00:58.179Z,11.15
2022-12-22T21:03:46.988Z,11.06
2022-12-22T21:06:37.895Z,11.10
2022-12-22T21:09:26.811Z,11.13
2022-12-22T21:12:15.263Z,11.08
2022-12-22T21:15:05.851Z,10.97
2022-12-22T21:17:58.430Z,11.09
2022-12-22T21:20:47.758Z,10.79
2022-12-22T21:23:36.230Z,11.00
2022-12-22T21:26:29.801Z,10.78
2022-12-22T21:29:20.354Z,10.93
2022-12-22T21:32:13.886Z,10.85
2022-12-22T21:35:07.777Z,10.71
2022-12-22T21:37:58.841Z,10.79
2022-12-22T21:40:47.606Z,10.84
2022-12-22T21:43:36.110Z,10.79
2022-12-22T21:46:24.622Z,10.74
2022-12-22T21:49:19.547Z,10.71
2022-12-22T21:52:08.029Z,10.66
2022-12-22T21:54:56.564Z,10.62
2022-12-22T21:57:45.128Z,10.58
2022-12-22T22:00:34.491Z,10.56
2022-12-22T22:03:23.106Z,10.53
2022-12-22T22:06:13.035Z,10.51
2022-12-22T22:09:04.104Z,10.50
2022-12-22T22:12:10.291Z,10.45
2022-12-22T22:15:00.776Z,10.44
2022-12-22T22:17:49.629Z,10.40
2022-12-22T22:20:38.150Z,10.38
2022-12-22T22:23:27.986Z,10.51
2022-12-22T22:26:16.516Z,10.34
2022-12-22T22:29:05.085Z,10.36
2022-12-22T22:31:53.539Z,10.40
2022-12-22T22:34:41.957Z,10.34
2022-12-22T22:37:30.398Z,10.40
2022-12-22T22:40:22.417Z,10.44
2022-12-22T22:43:11.057Z,10.44
2022-12-22T22:46:00.783Z,10.38
2022-12-22T22:48:49.681Z,10.47
2022-12-22T22:51:38.177Z,10.41
2022-12-22T22:54:26.670Z,10.33
2022-12-22T22:57:16.540Z,10.32
2022-12-22T23:00:05.530Z,10.27
2022-12-22T23:02:54.063Z,10.34
2022-12-22T23:05:42.630Z,10.24
2022-12-22T23:08:31.496Z,10.22
2022-12-22T23:11:19.980Z,10.19
2022-12-22T23:14:09.998Z,10.23
2022-12-22T23:16:58.544Z,10.23
2022-12-22T23:19:46.997Z,10.24
2022-12-22T23:22:35.547Z,10.25
2022-12-22T23:25:24.284Z,9.99
2022-12-22T23:28:12.970Z,10.30
2022-12-22T23:31:02.959Z,10.18
2022-12-22T23:33:51.457Z,10.15
2022-12-22T23:36:40.046Z,10.11
2022-12-22T23:39:28.709Z,10.14
2022-12-22T23:42:17.191Z,10.26
2022-12-22T23:45:06.325Z,10.25
2022-12-22T23:47:56.207Z,10.54
2022-12-22T23:50:46.669Z,10.47
2022-12-22T23:53:35.710Z,10.53
2022-12-22T23:56:24.336Z,10.59
2022-12-22T23:59:12.913Z,10.54
